sensor_id;sensor_type;location;lat;lon;timestamp;pressure;altitude;pressure_sealevel;temperature;humidity
59289;BME280;45056;47.602;9.886;2023-04-16T00:00:19;92769.41;;;6.10;68.54
59289;BME280;45056;47.602;9.886;2023-04-16T00:02:47;92763.16;;;6.13;68.43
59289;BME280;45056;47.602;9.886;2023-04-16T00:05:16;92759.63;;;6.16;68.36
59289;BME280;45056;47.602;9.886;2023-04-16T00:07:44;92767.34;;;6.18;68.29
59289;BME280;45056;47.602;9.886;2023-04-16T00:10:13;92773.47;;;6.18;68.16
59289;BME280;45056;47.602;9.886;2023-04-16T00:12:41;92768.06;;;6.18;68.44
59289;BME280;45056;47.602;9.886;2023-04-16T00:15:09;92776.53;;;6.20;68.45
59289;BME280;45056;47.602;9.886;2023-04-16T00:17:37;92770.28;;;6.24;68.31
59289;BME280;45056;47.602;9.886;2023-04-16T00:20:06;92779.94;;;6.25;68.39
59289;BME280;45056;47.602;9.886;2023-04-16T00:22:36;92783.78;;;6.24;68.29
59289;BME280;45056;47.602;9.886;2023-04-16T00:25:05;92779.56;;;6.23;68.24
59289;BME280;45056;47.602;9.886;2023-04-16T00:27:33;92782.28;;;6.23;68.25
59289;BME280;45056;47.602;9.886;2023-04-16T00:30:01;92775.69;;;6.24;68.27
59289;BME280;45056;47.602;9.886;2023-04-16T00:32:29;92781.09;;;6.24;68.25
59289;BME280;45056;47.602;9.886;2023-04-16T00:34:57;92774.16;;;6.23;68.06
59289;BME280;45056;47.602;9.886;2023-04-16T00:37:26;92784.63;;;6.20;68.05
59289;BME280;45056;47.602;9.886;2023-04-16T00:39:55;92778.03;;;6.21;67.68
59289;BME280;45056;47.602;9.886;2023-04-16T00:42:23;92779.56;;;6.23;67.89
59289;BME280;45056;47.602;9.886;2023-04-16T00:44:51;92782.66;;;6.25;67.87
59289;BME280;45056;47.602;9.886;2023-04-16T00:47:20;92771.41;;;6.26;67.78
59289;BME280;45056;47.602;9.886;2023-04-16T00:49:49;92779.09;;;6.28;67.93
59289;BME280;45056;47.602;9.886;2023-04-16T00:52:17;92785.69;;;6.27;67.98
59289;BME280;45056;47.602;9.886;2023-04-16T00:54:45;92784.91;;;6.26;67.89
59289;BME280;45056;47.602;9.886;2023-04-16T00:57:15;92782.66;;;6.25;67.85
59289;BME280;45056;47.602;9.886;2023-04-16T00:59:46;92786.50;;;6.24;67.88
59289;BME280;45056;47.602;9.886;2023-04-16T01:02:14;92784.22;;;6.22;67.81
59289;BME280;45056;47.602;9.886;2023-04-16T01:04:42;92789.19;;;6.24;67.61
59289;BME280;45056;47.602;9.886;2023-04-16T01:07:10;92782.69;;;6.21;67.78
59289;BME280;45056;47.602;9.886;2023-04-16T01:09:38;92790.03;;;6.20;67.94
59289;BME280;45056;47.602;9.886;2023-04-16T01:12:06;92788.50;;;6.19;67.79
59289;BME280;45056;47.602;9.886;2023-04-16T01:14:36;92792.72;;;6.20;67.89
59289;BME280;45056;47.602;9.886;2023-04-16T01:17:04;92798.47;;;6.23;67.92
59289;BME280;45056;47.602;9.886;2023-04-16T01:19:32;92785.75;;;6.23;67.82
59289;BME280;45056;47.602;9.886;2023-04-16T01:22:03;92787.69;;;6.23;67.71
59289;BME280;45056;47.602;9.886;2023-04-16T01:24:33;92795.03;;;6.22;67.87
59289;BME280;45056;47.602;9.886;2023-04-16T01:27:01;92782.69;;;6.21;67.94
59289;BME280;45056;47.602;9.886;2023-04-16T01:29:29;92795.03;;;6.22;67.77
59289;BME280;45056;47.602;9.886;2023-04-16T01:31:57;92787.34;;;6.20;67.65
59289;BME280;45056;47.602;9.886;2023-04-16T01:34:25;92790.13;;;6.17;67.71
59289;BME280;45056;47.602;9.886;2023-04-16T01:36:53;92787.13;;;6.11;67.36
59289;BME280;45056;47.602;9.886;2023-04-16T01:39:23;92794.22;;;6.05;67.35
59289;BME280;45056;47.602;9.886;2023-04-16T01:41:50;92795.03;;;6.02;67.58
59289;BME280;45056;47.602;9.886;2023-04-16T01:44:18;92792.38;;;5.98;67.45
59289;BME280;45056;47.602;9.886;2023-04-16T01:46:47;92795.56;;;5.93;67.50
59289;BME280;45056;47.602;9.886;2023-04-16T01:49:15;92796.78;;;5.88;67.28
59289;BME280;45056;47.602;9.886;2023-04-16T01:51:43;92799.97;;;5.83;67.19
59289;BME280;45056;47.602;9.886;2023-04-16T01:54:11;92797.38;;;5.80;67.37
59289;BME280;45056;47.602;9.886;2023-04-16T01:56:40;92808.22;;;5.76;67.60
59289;BME280;45056;47.602;9.886;2023-04-16T01:59:08;92801.34;;;5.71;67.56
59289;BME280;45056;47.602;9.886;2023-04-16T02:01:37;92795.19;;;5.71;67.73
59289;BME280;45056;47.602;9.886;2023-04-16T02:04:05;92797.56;;;5.69;67.66
59289;BME280;45056;47.602;9.886;2023-04-16T02:06:34;92804.53;;;5.66;67.84
59289;BME280;45056;47.602;9.886;2023-04-16T02:09:02;92797.22;;;5.67;67.92
59289;BME280;45056;47.602;9.886;2023-04-16T02:11:30;92804.47;;;5.70;67.99
59289;BME280;45056;47.602;9.886;2023-04-16T02:13:59;92806.75;;;5.71;68.09
59289;BME280;45056;47.602;9.886;2023-04-16T02:16:27;92800.94;;;5.73;68.13
59289;BME280;45056;47.602;9.886;2023-04-16T02:18:55;92806.25;;;5.76;68.15
59289;BME280;45056;47.602;9.886;2023-04-16T02:21:23;92798.16;;;5.76;68.15
59289;BME280;45056;47.602;9.886;2023-04-16T02:23:51;92803.16;;;5.78;67.83
59289;BME280;45056;47.602;9.886;2023-04-16T02:26:19;92798.16;;;5.76;67.80
59289;BME280;45056;47.602;9.886;2023-04-16T02:28:47;92800.47;;;5.78;67.62
59289;BME280;45056;47.602;9.886;2023-04-16T02:31:16;92807.44;;;5.75;67.70
59289;BME280;45056;47.602;9.886;2023-04-16T02:33:44;92804.34;;;5.77;67.95
59289;BME280;45056;47.602;9.886;2023-04-16T02:36:13;92805.88;;;5.78;67.90
59289;BME280;45056;47.602;9.886;2023-04-16T02:38:41;92801.97;;;5.79;67.98
59289;BME280;45056;47.602;9.886;2023-04-16T02:41:08;92809.69;;;5.81;68.03
59289;BME280;45056;47.602;9.886;2023-04-16T02:43:36;92813.91;;;5.82;67.89
59289;BME280;45056;47.602;9.886;2023-04-16T02:46:04;92815.44;;;5.83;67.81
59289;BME280;45056;47.602;9.886;2023-04-16T02:48:34;92809.25;;;5.82;67.71
59289;BME280;45056;47.602;9.886;2023-04-16T02:51:02;92815.09;;;5.81;67.80
59289;BME280;45056;47.602;9.886;2023-04-16T02:53:30;92814.31;;;5.80;67.69
59289;BME280;45056;47.602;9.886;2023-04-16T02:55:58;92815.13;;;5.77;67.42
59289;BME280;45056;47.602;9.886;2023-04-16T02:58:26;92806.69;;;5.75;67.32
59289;BME280;45056;47.602;9.886;2023-04-16T03:00:54;92806.34;;;5.73;67.31
59289;BME280;45056;47.602;9.886;2023-04-16T03:03:22;92805.22;;;5.70;67.42
59289;BME280;45056;47.602;9.886;2023-04-16T03:05:51;92807.56;;;5.68;67.37
59289;BME280;45056;47.602;9.886;2023-04-16T03:08:19;92806.81;;;5.68;67.56
59289;BME280;45056;47.602;9.886;2023-04-16T03:10:48;92816.09;;;5.67;67.68
59289;BME280;45056;47.602;9.886;2023-04-16T03:13:16;92809.19;;;5.66;67.55
59289;BME280;45056;47.602;9.886;2023-04-16T03:15:47;92810.75;;;5.63;67.24
59289;BME280;45056;47.602;9.886;2023-04-16T03:18:15;92816.19;;;5.59;67.22
59289;BME280;45056;47.602;9.886;2023-04-16T03:20:43;92820.91;;;5.55;67.04
59289;BME280;45056;47.602;9.886;2023-04-16T03:23:13;92818.34;;;5.48;66.80
59289;BME280;45056;47.602;9.886;2023-04-16T03:25:40;92816.13;;;5.43;66.92
59289;BME280;45056;47.602;9.886;2023-04-16T03:28:12;92818.84;;;5.39;66.72
59289;BME280;45056;47.602;9.886;2023-04-16T03:30:40;92813.53;;;5.36;66.91
59289;BME280;45056;47.602;9.886;2023-04-16T03:33:07;92818.22;;;5.31;66.79
59289;BME280;45056;47.602;9.886;2023-04-16T03:35:35;92813.28;;;5.26;66.86
59289;BME280;45056;47.602;9.886;2023-04-16T03:38:03;92817.22;;;5.22;66.93
59289;BME280;45056;47.602;9.886;2023-04-16T03:40:33;92819.56;;;5.19;66.98
59289;BME280;45056;47.602;9.886;2023-04-16T03:43:01;92819.97;;;5.18;67.21
59289;BME280;45056;47.602;9.886;2023-04-16T03:45:29;92819.97;;;5.18;67.37
59289;BME280;45056;47.602;9.886;2023-04-16T03:47:56;92821.16;;;5.17;67.55
59289;BME280;45056;47.602;9.886;2023-04-16T03:50:24;92823.09;;;5.16;67.57
59289;BME280;45056;47.602;9.886;2023-04-16T03:52:52;92822.31;;;5.16;67.66
59289;BME280;45056;47.602;9.886;2023-04-16T03:55:20;92820.41;;;5.16;67.95
59289;BME280;45056;47.602;9.886;2023-04-16T03:57:49;92827.72;;;5.16;67.58
59289;BME280;45056;47.602;9.886;2023-04-16T04:00:17;92827.72;;;5.16;67.80
59289;BME280;45056;47.602;9.886;2023-04-16T04:02:45;92825.41;;;5.14;67.84
59289;BME280;45056;47.602;9.886;2023-04-16T04:05:13;92830.81;;;5.14;67.89
59289;BME280;45056;47.602;9.886;2023-04-16T04:07:41;92834.69;;;5.13;68.07
59289;BME280;45056;47.602;9.886;2023-04-16T04:10:09;92829.28;;;5.13;67.96
59289;BME280;45056;47.602;9.886;2023-04-16T04:12:37;92832.75;;;5.14;67.86
59289;BME280;45056;47.602;9.886;2023-04-16T04:15:08;92830.06;;;5.14;67.98
59289;BME280;45056;47.602;9.886;2023-04-16T04:17:37;92826.19;;;5.15;68.08
59289;BME280;45056;47.602;9.886;2023-04-16T04:20:05;92826.53;;;5.17;68.07
59289;BME280;45056;47.602;9.886;2023-04-16T04:22:34;92829.59;;;5.19;68.12
59289;BME280;45056;47.602;9.886;2023-04-16T04:25:02;92828.41;;;5.20;68.14
59289;BME280;45056;47.602;9.886;2023-04-16T04:27:30;92836.50;;;5.20;68.22
59289;BME280;45056;47.602;9.886;2023-04-16T04:29:58;92833.81;;;5.20;68.09
59289;BME280;45056;47.602;9.886;2023-04-16T04:32:27;92840.72;;;5.21;68.17
59289;BME280;45056;47.602;9.886;2023-04-16T04:34:55;92842.25;;;5.22;68.23
59289;BME280;45056;47.602;9.886;2023-04-16T04:37:23;92839.56;;;5.22;68.06
59289;BME280;45056;47.602;9.886;2023-04-16T04:39:51;92841.84;;;5.24;68.08
59289;BME280;45056;47.602;9.886;2023-04-16T04:42:20;92844.91;;;5.26;68.19
59289;BME280;45056;47.602;9.886;2023-04-16T04:44:48;92845.31;;;5.24;68.28
59289;BME280;45056;47.602;9.886;2023-04-16T04:47:16;92839.56;;;5.22;68.20
59289;BME280;45056;47.602;9.886;2023-04-16T04:49:45;92842.25;;;5.22;68.34
59289;BME280;45056;47.602;9.886;2023-04-16T04:52:13;92846.81;;;5.25;68.22
59289;BME280;45056;47.602;9.886;2023-04-16T04:54:41;92855.28;;;5.27;68.28
59289;BME280;45056;47.602;9.886;2023-04-16T04:57:09;92859.16;;;5.26;68.32
59289;BME280;45056;47.602;9.886;2023-04-16T04:59:37;92860.66;;;5.27;68.28
59289;BME280;45056;47.602;9.886;2023-04-16T05:02:05;92856.44;;;5.26;68.01
59289;BME280;45056;47.602;9.886;2023-04-16T05:04:33;92856.88;;;5.25;68.27
59289;BME280;45056;47.602;9.886;2023-04-16T05:07:02;92860.75;;;5.24;68.17
59289;BME280;45056;47.602;9.886;2023-04-16T05:09:30;92867.69;;;5.21;68.22
59289;BME280;45056;47.602;9.886;2023-04-16T05:11:58;92872.34;;;5.20;68.22
59289;BME280;45056;47.602;9.886;2023-04-16T05:14:26;92873.91;;;5.18;68.17
59289;BME280;45056;47.602;9.886;2023-04-16T05:16:54;92872.81;;;5.15;68.32
59289;BME280;45056;47.602;9.886;2023-04-16T05:19:22;92880.13;;;5.15;68.26
59289;BME280;45056;47.602;9.886;2023-04-16T05:21:50;92884.00;;;5.14;68.18
59289;BME280;45056;47.602;9.886;2023-04-16T05:24:20;92894.00;;;5.13;68.26
59289;BME280;45056;47.602;9.886;2023-04-16T05:26:47;92884.41;;;5.12;68.51
59289;BME280;45056;47.602;9.886;2023-04-16T05:29:15;92889.03;;;5.12;68.31
59289;BME280;45056;47.602;9.886;2023-04-16T05:31:44;92887.09;;;5.12;68.43
59289;BME280;45056;47.602;9.886;2023-04-16T05:34:13;92884.41;;;5.12;68.21
59289;BME280;45056;47.602;9.886;2023-04-16T05:36:41;92886.34;;;5.12;68.31
59289;BME280;45056;47.602;9.886;2023-04-16T05:39:09;92887.88;;;5.13;68.31
59289;BME280;45056;47.602;9.886;2023-04-16T05:41:39;92898.66;;;5.13;68.27
59289;BME280;45056;47.602;9.886;2023-04-16T05:44:06;92896.34;;;5.11;68.16
59289;BME280;45056;47.602;9.886;2023-04-16T05:46:34;92899.06;;;5.11;68.17
59289;BME280;45056;47.602;9.886;2023-04-16T05:49:02;92891.31;;;5.13;68.20
59289;BME280;45056;47.602;9.886;2023-04-16T05:51:30;92896.31;;;5.15;68.19
59289;BME280;45056;47.602;9.886;2023-04-16T05:53:58;92905.94;;;5.16;68.01
59289;BME280;45056;47.602;9.886;2023-04-16T05:56:26;92901.72;;;5.15;68.26
59289;BME280;45056;47.602;9.886;2023-04-16T05:58:56;92907.91;;;5.12;67.93
59289;BME280;45056;47.602;9.886;2023-04-16T06:01:24;92912.19;;;5.09;68.06
59289;BME280;45056;47.602;9.886;2023-04-16T06:03:52;92909.84;;;5.11;68.13
59289;BME280;45056;47.602;9.886;2023-04-16T06:06:20;92916.38;;;5.14;68.12
59289;BME280;45056;47.602;9.886;2023-04-16T06:08:48;92910.16;;;5.17;68.21
59289;BME280;45056;47.602;9.886;2023-04-16T06:11:16;92917.03;;;5.22;68.21
59289;BME280;45056;47.602;9.886;2023-04-16T06:13:44;92913.09;;;5.26;68.08
59289;BME280;45056;47.602;9.886;2023-04-16T06:16:13;92914.97;;;5.29;67.95
59289;BME280;45056;47.602;9.886;2023-04-16T06:18:41;92909.19;;;5.31;67.74
59289;BME280;45056;47.602;9.886;2023-04-16T06:21:09;92912.66;;;5.31;67.54
59289;BME280;45056;47.602;9.886;2023-04-16T06:23:37;92912.66;;;5.31;67.37
59289;BME280;45056;47.602;9.886;2023-04-16T06:26:05;92917.66;;;5.29;67.28
59289;BME280;45056;47.602;9.886;2023-04-16T06:28:33;92920.03;;;5.27;67.38
59289;BME280;45056;47.602;9.886;2023-04-16T06:31:01;92918.50;;;5.26;67.31
59289;BME280;45056;47.602;9.886;2023-04-16T06:33:31;92914.69;;;5.24;67.38
59289;BME280;45056;47.602;9.886;2023-04-16T06:35:59;92919.72;;;5.22;67.23
59289;BME280;45056;47.602;9.886;2023-04-16T06:38:27;92926.69;;;5.19;67.40
59289;BME280;45056;47.602;9.886;2023-04-16T06:40:55;92920.94;;;5.17;67.49
59289;BME280;45056;47.602;9.886;2023-04-16T06:43:23;92928.69;;;5.15;67.41
59289;BME280;45056;47.602;9.886;2023-04-16T06:45:52;92931.03;;;5.13;67.58
59289;BME280;45056;47.602;9.886;2023-04-16T06:48:20;92926.81;;;5.12;67.48
59289;BME280;45056;47.602;9.886;2023-04-16T06:50:49;92931.03;;;5.13;67.51
59289;BME280;45056;47.602;9.886;2023-04-16T06:53:17;92930.25;;;5.12;67.57
59289;BME280;45056;47.602;9.886;2023-04-16T06:55:45;92932.56;;;5.14;67.37
59289;BME280;45056;47.602;9.886;2023-04-16T06:58:13;92934.84;;;5.15;67.65
59289;BME280;45056;47.602;9.886;2023-04-16T07:00:41;92939.81;;;5.17;67.91
59289;BME280;45056;47.602;9.886;2023-04-16T07:03:09;92940.19;;;5.19;67.76
59289;BME280;45056;47.602;9.886;2023-04-16T07:05:37;92941.72;;;5.20;67.48
59289;BME280;45056;47.602;9.886;2023-04-16T07:08:07;92938.25;;;5.19;67.61
59289;BME280;45056;47.602;9.886;2023-04-16T07:10:35;92943.22;;;5.21;67.63
59289;BME280;45056;47.602;9.886;2023-04-16T07:13:03;92946.28;;;5.23;67.61
59289;BME280;45056;47.602;9.886;2023-04-16T07:15:30;92931.63;;;5.24;67.73
59289;BME280;45056;47.602;9.886;2023-04-16T07:17:58;92941.97;;;5.29;67.82
59289;BME280;45056;47.602;9.886;2023-04-16T07:20:26;92943.09;;;5.32;67.90
59289;BME280;45056;47.602;9.886;2023-04-16T07:22:54;92938.81;;;5.34;67.83
59289;BME280;45056;47.602;9.886;2023-04-16T07:25:26;92936.88;;;5.35;67.79
59289;BME280;45056;47.602;9.886;2023-04-16T07:27:54;92941.44;;;5.38;67.67
59289;BME280;45056;47.602;9.886;2023-04-16T07:30:22;92935.66;;;5.40;67.78
59289;BME280;45056;47.602;9.886;2023-04-16T07:32:50;92938.63;;;5.45;68.06
59289;BME280;45056;47.602;9.886;2023-04-16T07:35:18;92938.94;;;5.51;68.26
59289;BME280;45056;47.602;9.886;2023-04-16T07:37:46;92946.22;;;5.54;67.91
59289;BME280;45056;47.602;9.886;2023-04-16T07:40:14;92949.63;;;5.58;68.09
59289;BME280;45056;47.602;9.886;2023-04-16T07:42:43;92938.41;;;5.63;68.13
59289;BME280;45056;47.602;9.886;2023-04-16T07:45:11;92956.41;;;5.70;67.83
59289;BME280;45056;47.602;9.886;2023-04-16T07:47:39;92954.81;;;5.73;67.96
59289;BME280;45056;47.602;9.886;2023-04-16T07:50:08;92951.31;;;5.76;67.94
59289;BME280;45056;47.602;9.886;2023-04-16T07:52:36;92950.91;;;5.77;67.98
59289;BME280;45056;47.602;9.886;2023-04-16T07:55:07;92957.06;;;5.78;67.99
59289;BME280;45056;47.602;9.886;2023-04-16T07:57:35;92955.13;;;5.78;68.10
59289;BME280;45056;47.602;9.886;2023-04-16T08:00:06;92960.09;;;5.80;68.35
59289;BME280;45056;47.602;9.886;2023-04-16T08:02:35;92964.28;;;5.85;68.43
59289;BME280;45056;47.602;9.886;2023-04-16T08:05:03;92968.03;;;5.91;68.29
59289;BME280;45056;47.602;9.886;2023-04-16T08:07:32;92961.41;;;5.96;68.29
59289;BME280;45056;47.602;9.886;2023-04-16T08:09:59;92967.19;;;5.98;68.16
59289;BME280;45056;47.602;9.886;2023-04-16T08:12:28;92978.31;;;6.00;67.98
59289;BME280;45056;47.602;9.886;2023-04-16T08:14:56;92962.88;;;6.00;68.23
59289;BME280;45056;47.602;9.886;2023-04-16T08:17:25;92972.88;;;6.03;68.18
59289;BME280;45056;47.602;9.886;2023-04-16T08:19:54;92977.88;;;6.05;68.04
59289;BME280;45056;47.602;9.886;2023-04-16T08:22:21;92985.63;;;6.03;68.16
59289;BME280;45056;47.602;9.886;2023-04-16T08:24:49;92986.81;;;6.02;68.14
59289;BME280;45056;47.602;9.886;2023-04-16T08:27:17;92988.34;;;6.03;68.23
59289;BME280;45056;47.602;9.886;2023-04-16T08:29:46;92988.34;;;6.03;68.22
59289;BME280;45056;47.602;9.886;2023-04-16T08:32:14;92994.91;;;6.02;68.05
59289;BME280;45056;47.602;9.886;2023-04-16T08:34:44;92994.91;;;6.02;68.45
59289;BME280;45056;47.602;9.886;2023-04-16T08:37:12;92992.97;;;6.02;68.28
59289;BME280;45056;47.602;9.886;2023-04-16T08:39:40;92995.25;;;6.04;68.73
59289;BME280;45056;47.602;9.886;2023-04-16T08:42:20;92995.63;;;6.06;68.81
59289;BME280;45056;47.602;9.886;2023-04-16T08:45:03;92995.13;;;6.11;68.70
59289;BME280;45056;47.602;9.886;2023-04-16T08:47:35;92989.69;;;6.15;68.74
59289;BME280;45056;47.602;9.886;2023-04-16T08:50:05;93003.91;;;6.19;68.40
59289;BME280;45056;47.602;9.886;2023-04-16T08:52:44;92998.50;;;6.19;68.50
59289;BME280;45056;47.602;9.886;2023-04-16T08:55:18;92998.06;;;6.20;68.27
59289;BME280;45056;47.602;9.886;2023-04-16T08:57:53;93004.19;;;6.25;68.52
59289;BME280;45056;47.602;9.886;2023-04-16T09:00:24;92996.44;;;6.27;68.38
59289;BME280;45056;47.602;9.886;2023-04-16T09:02:53;93004.06;;;6.32;68.40
59289;BME280;45056;47.602;9.886;2023-04-16T09:05:22;93010.53;;;6.38;68.57
59289;BME280;45056;47.602;9.886;2023-04-16T09:07:52;93006.28;;;6.37;68.36
59289;BME280;45056;47.602;9.886;2023-04-16T09:10:20;93007.03;;;6.38;68.28
59289;BME280;45056;47.602;9.886;2023-04-16T09:12:48;93020.94;;;6.40;68.47
59289;BME280;45056;47.602;9.886;2023-04-16T09:15:19;93023.22;;;6.41;68.20
59289;BME280;45056;47.602;9.886;2023-04-16T09:17:48;93018.59;;;6.42;68.25
59289;BME280;45056;47.602;9.886;2023-04-16T09:20:16;93022.47;;;6.41;68.32
59289;BME280;45056;47.602;9.886;2023-04-16T09:22:45;93024.00;;;6.42;68.29
59289;BME280;45056;47.602;9.886;2023-04-16T09:25:14;93025.91;;;6.41;68.31
59289;BME280;45056;47.602;9.886;2023-04-16T09:27:42;93026.25;;;6.43;68.51
59289;BME280;45056;47.602;9.886;2023-04-16T09:30:24;93032.78;;;6.46;68.49
59289;BME280;45056;47.602;9.886;2023-04-16T09:33:12;93022.72;;;6.46;68.60
59289;BME280;45056;47.602;9.886;2023-04-16T09:35:46;93031.63;;;6.47;68.82
59289;BME280;45056;47.602;9.886;2023-04-16T09:38:16;93028.13;;;6.46;68.63
59289;BME280;45056;47.602;9.886;2023-04-16T09:40:45;93028.09;;;6.50;68.57
59289;BME280;45056;47.602;9.886;2023-04-16T09:43:15;93027.66;;;6.52;68.50
59289;BME280;45056;47.602;9.886;2023-04-16T09:45:48;93036.13;;;6.54;68.57
59289;BME280;45056;47.602;9.886;2023-04-16T09:48:27;93040.00;;;6.53;68.25
59289;BME280;45056;47.602;9.886;2023-04-16T09:50:56;93036.94;;;6.50;68.51
59289;BME280;45056;47.602;9.886;2023-04-16T09:53:28;93037.03;;;6.47;68.28
59289;BME280;45056;47.602;9.886;2023-04-16T09:55:59;93045.53;;;6.45;68.32
59289;BME280;45056;47.602;9.886;2023-04-16T09:58:28;93049.75;;;6.46;68.71
59289;BME280;45056;47.602;9.886;2023-04-16T10:01:00;93049.38;;;6.48;68.54
59289;BME280;45056;47.602;9.886;2023-04-16T10:03:29;93050.13;;;6.48;68.50
59289;BME280;45056;47.602;9.886;2023-04-16T10:05:59;93048.19;;;6.49;68.59
59289;BME280;45056;47.602;9.886;2023-04-16T10:08:29;93049.63;;;6.54;68.51
59289;BME280;45056;47.602;9.886;2023-04-16T10:10:58;93042.25;;;6.58;68.71
59289;BME280;45056;47.602;9.886;2023-04-16T10:13:26;93048.75;;;6.60;68.81
59289;BME280;45056;47.602;9.886;2023-04-16T10:15:56;93044.81;;;6.65;68.61
59289;BME280;45056;47.602;9.886;2023-04-16T10:18:24;93046.69;;;6.68;68.46
59289;BME280;45056;47.602;9.886;2023-04-16T10:20:54;93055.16;;;6.70;68.55
59289;BME280;45056;47.602;9.886;2023-04-16T10:23:22;93058.25;;;6.69;68.46
59289;BME280;45056;47.602;9.886;2023-04-16T10:25:53;93057.47;;;6.72;68.48
59289;BME280;45056;47.602;9.886;2023-04-16T10:28:23;93053.97;;;6.71;68.28
59289;BME280;45056;47.602;9.886;2023-04-16T10:30:55;93051.69;;;6.70;68.23
59289;BME280;45056;47.602;9.886;2023-04-16T10:33:28;93059.03;;;6.69;68.42
59289;BME280;45056;47.602;9.886;2023-04-16T10:36:08;93062.91;;;6.68;68.48
59289;BME280;45056;47.602;9.886;2023-04-16T10:38:38;93054.47;;;6.66;68.71
59289;BME280;45056;47.602;9.886;2023-04-16T10:41:08;93053.69;;;6.66;68.74
59289;BME280;45056;47.602;9.886;2023-04-16T10:43:41;93065.28;;;6.66;68.62
59289;BME280;45056;47.602;9.886;2023-04-16T10:46:18;93058.69;;;6.67;68.83
59289;BME280;45056;47.602;9.886;2023-04-16T10:48:49;93056.75;;;6.68;68.75
59289;BME280;45056;47.602;9.886;2023-04-16T10:51:27;93062.91;;;6.68;68.86
59289;BME280;45056;47.602;9.886;2023-04-16T10:54:01;93060.97;;;6.69;68.72
59289;BME280;45056;47.602;9.886;2023-04-16T10:56:33;93057.91;;;6.67;68.80
59289;BME280;45056;47.602;9.886;2023-04-16T10:59:04;93060.56;;;6.70;68.93
59289;BME280;45056;47.602;9.886;2023-04-16T11:01:35;93057.38;;;6.75;68.85
59289;BME280;45056;47.602;9.886;2023-04-16T11:04:25;93063.84;;;6.82;68.48
59289;BME280;45056;47.602;9.886;2023-04-16T11:07:03;93061.81;;;6.86;68.17
59289;BME280;45056;47.602;9.886;2023-04-16T11:10:02;93060.59;;;6.90;67.98
59289;BME280;45056;47.602;9.886;2023-04-16T11:12:35;93059.34;;;6.95;68.09
59289;BME280;45056;47.602;9.886;2023-04-16T11:15:06;93051.94;;;6.99;68.25
59289;BME280;45056;47.602;9.886;2023-04-16T11:17:37;93052.63;;;7.03;68.22
59289;BME280;45056;47.602;9.886;2023-04-16T11:20:08;93050.25;;;7.05;68.08
59289;BME280;45056;47.602;9.886;2023-04-16T11:22:42;93054.50;;;7.06;67.81
59289;BME280;45056;47.602;9.886;2023-04-16T11:25:11;93047.63;;;7.02;67.94
59289;BME280;45056;47.602;9.886;2023-04-16T11:27:40;93054.59;;;7.03;68.32
59289;BME280;45056;47.602;9.886;2023-04-16T11:30:09;93059.56;;;7.04;68.45
59289;BME280;45056;47.602;9.886;2023-04-16T11:32:38;93062.63;;;7.06;68.54
59289;BME280;45056;47.602;9.886;2023-04-16T11:35:12;93058.38;;;7.05;68.67
59289;BME280;45056;47.602;9.886;2023-04-16T11:37:42;93066.50;;;7.05;68.77
59289;BME280;45056;47.602;9.886;2023-04-16T11:40:11;93066.50;;;7.05;68.70
59289;BME280;45056;47.602;9.886;2023-04-16T11:42:41;93068.03;;;7.06;68.72
59289;BME280;45056;47.602;9.886;2023-04-16T11:45:10;93066.94;;;7.04;68.70
59289;BME280;45056;47.602;9.886;2023-04-16T11:47:43;93063.09;;;7.01;68.55
59289;BME280;45056;47.602;9.886;2023-04-16T11:50:20;93060.06;;;6.99;68.62
59289;BME280;45056;47.602;9.886;2023-04-16T11:52:51;93058.94;;;6.97;68.62
59289;BME280;45056;47.602;9.886;2023-04-16T11:55:21;93066.28;;;6.96;68.75
59289;BME280;45056;47.602;9.886;2023-04-16T11:57:51;93064.78;;;6.95;69.02
59289;BME280;45056;47.602;9.886;2023-04-16T12:00:19;93061.28;;;6.95;69.23
59289;BME280;45056;47.602;9.886;2023-04-16T12:02:49;93060.88;;;6.96;69.03
59289;BME280;45056;47.602;9.886;2023-04-16T12:05:30;93061.56;;;7.00;69.24
59289;BME280;45056;47.602;9.886;2023-04-16T12:08:02;93065.88;;;6.98;69.12
59289;BME280;45056;47.602;9.886;2023-04-16T12:10:33;93057.00;;;6.97;68.98
59289;BME280;45056;47.602;9.886;2023-04-16T12:13:13;93064.34;;;6.97;68.93
59289;BME280;45056;47.602;9.886;2023-04-16T12:15:44;93069.75;;;6.97;69.28
59289;BME280;45056;47.602;9.886;2023-04-16T12:18:13;93073.22;;;6.97;69.06
59289;BME280;45056;47.602;9.886;2023-04-16T12:20:42;93068.16;;;6.99;69.04
59289;BME280;45056;47.602;9.886;2023-04-16T12:23:22;93064.69;;;6.99;68.94
59289;BME280;45056;47.602;9.886;2023-04-16T12:25:51;93070.88;;;6.99;68.83
59289;BME280;45056;47.602;9.886;2023-04-16T12:28:29;93080.16;;;6.98;68.74
59289;BME280;45056;47.602;9.886;2023-04-16T12:30:59;93066.28;;;6.96;68.63
59289;BME280;45056;47.602;9.886;2023-04-16T12:33:28;93075.59;;;6.95;68.56
59289;BME280;45056;47.602;9.886;2023-04-16T12:35:56;93077.50;;;6.95;68.74
59289;BME280;45056;47.602;9.886;2023-04-16T12:38:24;93075.59;;;6.95;69.00
59289;BME280;45056;47.602;9.886;2023-04-16T12:40:52;93081.00;;;6.95;68.89
59289;BME280;45056;47.602;9.886;2023-04-16T12:43:22;93075.94;;;6.97;68.89
59289;BME280;45056;47.602;9.886;2023-04-16T12:45:51;93071.28;;;6.98;68.76
59289;BME280;45056;47.602;9.886;2023-04-16T12:48:19;93078.56;;;7.01;68.60
59289;BME280;45056;47.602;9.886;2023-04-16T12:50:47;93075.09;;;7.00;69.06
59289;BME280;45056;47.602;9.886;2023-04-16T12:53:15;93073.91;;;7.01;69.23
59289;BME280;45056;47.602;9.886;2023-04-16T12:55:43;93074.66;;;7.02;69.09
59289;BME280;45056;47.602;9.886;2023-04-16T12:58:11;93083.22;;;7.00;69.16
59289;BME280;45056;47.602;9.886;2023-04-16T13:00:39;93077.38;;;7.02;69.12
59289;BME280;45056;47.602;9.886;2023-04-16T13:03:09;93078.50;;;7.04;69.15
59289;BME280;45056;47.602;9.886;2023-04-16T13:05:37;93078.50;;;7.04;69.06
59289;BME280;45056;47.602;9.886;2023-04-16T13:08:07;93076.22;;;7.03;69.12
59289;BME280;45056;47.602;9.886;2023-04-16T13:10:36;93078.16;;;7.02;69.17
59289;BME280;45056;47.602;9.886;2023-04-16T13:13:04;93073.91;;;7.01;69.02
59289;BME280;45056;47.602;9.886;2023-04-16T13:15:32;93070.03;;;7.02;69.18
59289;BME280;45056;47.602;9.886;2023-04-16T13:18:00;93075.44;;;7.02;69.34
59289;BME280;45056;47.602;9.886;2023-04-16T13:20:29;93070.81;;;7.03;69.27